Time;durP1;ratioP1;P1;durP2;ratioP2;P2;SDS_P1;SDS_P2;PMS_P1;PMS_P2;Temp;Humidity;BMP_temperature;BMP_pressure;BME280_temperature;BME280_humidity;BME280_pressure;Samples;Min_cycle;Max_cycle;Signal;HPM_P1;HPM_P2
2024/01/28 00:00:42;;;;;;;18.83;5.20;;;;;;;1.50;100.00;103218.94;6310797;28;20049;-74
2024/01/28 00:03:43;;;;;;;13.82;5.35;;;;;;;1.51;100.00;103218.06;6311606;28;20044;-74
2024/01/28 00:06:45;;;;;;;12.48;5.30;;;;;;;1.56;100.00;103217.31;6310806;28;20445;-76
2024/01/28 00:09:47;;;;;;;9.20;4.95;;;;;;;1.50;100.00;103215.47;6316023;28;20039;-74
2024/01/28 00:12:52;;;;;;;15.10;5.65;;;;;;;1.49;100.00;103206.78;6315912;28;20044;-73
2024/01/28 00:15:53;;;;;;;25.88;5.88;;;;;;;1.47;100.00;103205.00;6314856;28;20109;-74
2024/01/28 00:18:58;;;;;;;16.23;5.47;;;;;;;1.44;100.00;103202.34;6316271;28;20056;-74
2024/01/28 00:22:00;;;;;;;15.20;4.85;;;;;;;1.43;100.00;103198.00;6305190;28;20052;-74
2024/01/28 00:25:04;;;;;;;11.20;4.32;;;;;;;1.47;100.00;103192.06;6303323;28;20544;-74
2024/01/28 00:28:06;;;;;;;15.57;5.00;;;;;;;1.45;100.00;103183.34;6302477;28;20052;-74
2024/01/28 00:31:08;;;;;;;12.98;5.15;;;;;;;1.40;100.00;103182.38;6303029;28;20350;-74
2024/01/28 00:34:10;;;;;;;14.82;4.97;;;;;;;1.38;100.00;103174.56;6338098;22;20040;-73
2024/01/28 00:37:11;;;;;;;26.48;5.75;;;;;;;1.38;100.00;103178.88;6327781;28;20048;-73
2024/01/28 00:40:14;;;;;;;18.85;5.18;;;;;;;1.41;100.00;103177.25;6328103;28;20055;-72
2024/01/28 00:43:16;;;;;;;20.63;5.20;;;;;;;1.42;100.00;103185.91;6327902;28;20052;-72
2024/01/28 00:46:17;;;;;;;14.25;4.85;;;;;;;1.39;100.00;103186.69;6327324;28;20047;-72
2024/01/28 00:49:18;;;;;;;18.75;4.82;;;;;;;1.39;100.00;103178.03;6328100;28;20059;-72
2024/01/28 00:52:20;;;;;;;16.85;5.93;;;;;;;1.35;100.00;103174.50;6327798;28;20051;-72
2024/01/28 00:55:23;;;;;;;12.23;4.75;;;;;;;1.35;100.00;103181.41;6327686;28;20056;-72
2024/01/28 00:58:24;;;;;;;17.13;5.32;;;;;;;1.25;100.00;103188.06;6327407;28;20059;-73
2024/01/28 01:01:25;;;;;;;22.30;6.45;;;;;;;1.23;100.00;103171.63;6327497;28;20055;-72
2024/01/28 01:04:27;;;;;;;11.65;5.57;;;;;;;1.21;100.00;103170.69;6327425;28;20443;-72
2024/01/28 01:07:28;;;;;;;16.25;5.30;;;;;;;1.22;100.00;103168.13;6326507;28;20051;-73
2024/01/28 01:10:31;;;;;;;13.20;4.72;;;;;;;1.16;100.00;103165.41;6327519;28;20048;-72
2024/01/28 01:13:32;;;;;;;14.93;4.63;;;;;;;1.18;100.00;103163.75;6322380;28;20435;-73
2024/01/28 01:16:34;;;;;;;10.82;4.47;;;;;;;1.17;100.00;103161.09;6316151;28;20075;-72
2024/01/28 01:19:35;;;;;;;9.20;3.88;;;;;;;1.12;100.00;103173.06;6318428;28;20056;-72
2024/01/28 01:22:36;;;;;;;15.05;4.72;;;;;;;1.12;100.00;103170.47;6327080;28;20044;-73
2024/01/28 01:25:39;;;;;;;17.50;5.63;;;;;;;1.12;100.00;103178.25;6318175;28;20051;-73
2024/01/28 01:28:40;;;;;;;14.95;4.82;;;;;;;1.13;100.00;103174.81;6326740;28;20052;-72
2024/01/28 01:31:42;;;;;;;9.02;4.75;;;;;;;1.15;100.00;103173.16;6326939;28;20054;-73
2024/01/28 01:34:44;;;;;;;10.68;4.43;;;;;;;1.15;100.00;103170.56;6326464;28;20130;-72
2024/01/28 01:37:45;;;;;;;11.35;4.40;;;;;;;1.15;100.00;103165.38;6317916;28;20052;-72
2024/01/28 01:40:48;;;;;;;19.55;4.35;;;;;;;1.13;100.00;103167.91;6326630;28;20048;-72
2024/01/28 01:43:49;;;;;;;11.00;4.35;;;;;;;1.14;100.00;103163.63;6326503;28;20044;-73
2024/01/28 01:46:51;;;;;;;13.93;5.00;;;;;;;1.13;100.00;103162.72;6326080;28;20047;-73
2024/01/28 01:49:53;;;;;;;15.68;4.05;;;;;;;1.11;100.00;103163.56;6326645;28;20047;-73
2024/01/28 01:52:54;;;;;;;10.30;3.85;;;;;;;1.03;100.00;103163.34;6326052;28;20047;-72
2024/01/28 01:55:57;;;;;;;13.82;4.57;;;;;;;1.03;100.00;103158.19;6326608;28;20071;-73
2024/01/28 01:58:59;;;;;;;18.15;4.13;;;;;;;1.00;100.00;103161.59;6325732;28;20455;-74
2024/01/28 02:02:03;;;;;;;11.95;4.05;;;;;;;0.98;100.00;103159.78;6326263;28;20055;-72
2024/01/28 02:05:06;;;;;;;12.70;3.75;;;;;;;1.00;100.00;103155.53;6317557;28;20048;-72
2024/01/28 02:08:07;;;;;;;9.60;3.97;;;;;;;0.97;100.00;103147.69;6325296;28;20089;-72
2024/01/28 02:11:10;;;;;;;17.15;5.25;;;;;;;1.01;100.00;103141.75;6326093;28;20056;-73
2024/01/28 02:14:21;;;;;;;8.02;4.15;;;;;;;0.94;100.00;103145.00;6325575;28;20044;-73
2024/01/28 02:17:22;;;;;;;13.32;4.30;;;;;;;0.94;100.00;103145.00;6325794;28;20048;-72
2024/01/28 02:20:23;;;;;;;13.77;4.70;;;;;;;0.91;100.00;103148.41;6326229;28;20055;-72
2024/01/28 02:23:26;;;;;;;24.25;4.88;;;;;;;0.92;100.00;103138.91;6325776;28;20059;-72
2024/01/28 02:26:28;;;;;;;15.82;3.40;;;;;;;0.92;100.00;103146.69;6325085;28;20048;-72
2024/01/28 02:29:29;;;;;;;8.68;4.10;;;;;;;0.88;100.00;103137.09;6324954;28;20362;-72
2024/01/28 02:32:31;;;;;;;11.50;5.03;;;;;;;0.92;100.00;103134.63;6325530;28;20044;-72
2024/01/28 02:35:32;;;;;;;15.00;4.30;;;;;;;0.89;100.00;103136.25;6325516;28;20051;-73
2024/01/28 02:38:35;;;;;;;8.75;3.90;;;;;;;0.91;100.00;103134.56;6324793;28;20040;-73
2024/01/28 02:41:36;;;;;;;17.75;4.03;;;;;;;0.87;100.00;103133.63;6325004;28;20079;-73
2024/01/28 02:44:37;;;;;;;11.57;3.88;;;;;;;0.87;100.00;103130.16;6316352;28;20343;-73
2024/01/28 02:47:39;;;;;;;8.98;4.15;;;;;;;0.91;100.00;103127.69;6324531;28;20446;-74
2024/01/28 02:50:40;;;;;;;10.65;3.63;;;;;;;0.87;100.00;103125.88;6325355;28;20048;-74
2024/01/28 02:53:43;;;;;;;11.20;4.10;;;;;;;0.90;100.00;103120.75;6324912;28;20127;-73
2024/01/28 02:56:44;;;;;;;15.00;4.45;;;;;;;0.89;100.00;103110.38;6324979;28;20044;-73
2024/01/28 02:59:45;;;;;;;8.85;3.67;;;;;;;0.91;100.00;103106.09;6325014;28;20340;-73
2024/01/28 03:02:47;;;;;;;12.57;3.55;;;;;;;0.89;100.00;103095.69;6325044;28;20379;-73
2024/01/28 03:05:49;;;;;;;19.70;3.72;;;;;;;0.87;100.00;103105.16;6325115;28;20489;-73
2024/01/28 03:08:51;;;;;;;15.50;3.60;;;;;;;0.90;100.00;103099.16;6322199;28;20459;-73
2024/01/28 03:11:53;;;;;;;14.82;3.90;;;;;;;0.86;100.00;103095.63;6324928;28;20044;-73
2024/01/28 03:14:54;;;;;;;9.93;3.75;;;;;;;0.85;100.00;103091.28;6316619;28;20067;-72
2024/01/28 03:17:55;;;;;;;11.63;3.50;;;;;;;0.86;100.00;103094.75;6323064;28;20353;-71
2024/01/28 03:20:57;;;;;;;7.30;3.45;;;;;;;0.87;100.00;103091.34;6324933;28;20055;-72
2024/01/28 03:23:59;;;;;;;7.75;2.90;;;;;;;0.85;100.00;103090.41;6323436;28;20052;-72
2024/01/28 03:27:01;;;;;;;12.38;3.13;;;;;;;0.85;100.00;103088.69;6323890;28;20048;-72
2024/01/28 03:30:04;;;;;;;9.60;3.00;;;;;;;0.87;100.00;103078.41;6299497;28;20048;-74
2024/01/28 03:33:05;;;;;;;9.43;3.45;;;;;;;0.89;100.00;103082.75;6299193;28;20047;-73
2024/01/28 03:36:07;;;;;;;10.43;4.18;;;;;;;0.89;100.00;103089.66;6299087;28;20049;-72
2024/01/28 03:39:10;;;;;;;8.93;4.65;;;;;;;0.81;100.00;103083.41;6299578;28;20052;-73
2024/01/28 03:42:11;;;;;;;20.77;4.43;;;;;;;0.81;100.00;103088.59;6302075;28;20049;-73
2024/01/28 03:45:13;;;;;;;6.82;2.90;;;;;;;0.71;100.00;103080.59;6304255;28;20486;-72
2024/01/28 03:48:14;;;;;;;5.88;3.38;;;;;;;0.70;100.00;103086.63;6303492;28;20071;-72
2024/01/28 03:51:15;;;;;;;10.80;4.07;;;;;;;0.63;100.00;103086.41;6303998;28;20460;-71
2024/01/28 03:54:18;;;;;;;11.95;3.92;;;;;;;0.63;100.00;103083.81;6303834;28;20052;-72
2024/01/28 03:57:19;;;;;;;18.27;4.55;;;;;;;0.59;100.00;103076.81;6303340;28;20052;-72
2024/01/28 04:00:28;;;;;;;13.00;3.72;;;;;;;0.55;100.00;103078.47;6303974;28;20048;-71
2024/01/28 04:03:29;;;;;;;8.50;3.28;;;;;;;0.57;100.00;103071.63;6303384;28;20045;-72
2024/01/28 04:06:31;;;;;;;10.07;3.65;;;;;;;0.56;100.00;103069.88;6303259;28;20444;-72
2024/01/28 04:09:33;;;;;;;16.38;3.88;;;;;;;0.53;100.00;103072.38;6303747;28;20048;-73
2024/01/28 04:12:35;;;;;;;11.57;3.53;;;;;;;0.52;100.00;103069.75;6303730;28;20106;-72
2024/01/28 04:15:36;;;;;;;12.80;3.05;;;;;;;0.52;100.00;103073.22;6303356;28;20053;-71
2024/01/28 04:18:37;;;;;;;8.63;2.42;;;;;;;0.47;100.00;103070.50;6304112;28;20048;-72
2024/01/28 04:21:40;;;;;;;7.43;3.03;;;;;;;0.47;100.00;103075.69;6328969;28;20326;-71
2024/01/28 04:24:43;;;;;;;13.40;3.53;;;;;;;0.45;100.00;103071.28;6322169;28;20040;-73
2024/01/28 04:27:44;;;;;;;7.80;3.67;;;;;;;0.43;100.00;103066.09;6328024;28;20071;-72
2024/01/28 04:30:46;;;;;;;6.38;3.08;;;;;;;0.40;100.00;103055.66;6328222;28;20093;-73
2024/01/28 04:33:47;;;;;;;7.80;3.22;;;;;;;0.41;100.00;103056.53;6327472;28;20180;-72
2024/01/28 04:36:49;;;;;;;9.50;3.28;;;;;;;0.40;100.00;103044.44;6328238;28;20456;-72
2024/01/28 04:39:51;;;;;;;11.80;3.17;;;;;;;0.40;100.00;103039.25;6328135;28;20126;-73
2024/01/28 04:42:53;;;;;;;12.52;3.13;;;;;;;0.43;100.00;103029.00;6327818;28;20048;-73
2024/01/28 04:45:54;;;;;;;23.88;3.88;;;;;;;0.40;100.00;103034.09;6328214;28;20055;-72
2024/01/28 04:48:55;;;;;;;9.70;3.63;;;;;;;0.38;100.00;103038.38;6327658;28;20424;-73
2024/01/28 04:51:58;;;;;;;16.17;4.60;;;;;;;0.38;100.00;103028.03;6327707;28;20051;-74
2024/01/28 04:55:00;;;;;;;7.80;3.55;;;;;;;0.34;100.00;103032.22;6326375;28;20193;-72
2024/01/28 04:58:02;;;;;;;13.45;3.50;;;;;;;0.34;100.00;103033.94;6327144;28;20040;-71
2024/01/28 05:01:03;;;;;;;9.20;3.08;;;;;;;0.38;100.00;103034.06;6327683;28;20044;-73
2024/01/28 05:04:05;;;;;;;7.28;2.97;;;;;;;0.38;100.00;103031.47;6326782;28;20055;-71
2024/01/28 05:07:06;;;;;;;10.32;3.17;;;;;;;0.36;100.00;103034.84;6327142;28;20127;-71
2024/01/28 05:10:10;;;;;;;8.73;3.15;;;;;;;0.36;100.00;103022.78;6327136;28;20067;-73
2024/01/28 05:13:11;;;;;;;8.63;2.47;;;;;;;0.37;100.00;103024.56;6327053;28;20082;-71
2024/01/28 05:16:13;;;;;;;8.57;2.55;;;;;;;0.40;100.00;103031.50;6326658;28;20056;-71
2024/01/28 05:19:14;;;;;;;12.82;2.80;;;;;;;0.45;100.00;103032.50;6327322;28;20127;-72
2024/01/28 05:22:15;;;;;;;3.90;2.25;;;;;;;0.47;100.00;103023.06;6326944;28;20048;-72
2024/01/28 05:25:18;;;;;;;5.30;2.50;;;;;;;0.49;100.00;103017.09;6327128;28;20055;-72
2024/01/28 05:28:19;;;;;;;7.30;2.80;;;;;;;0.49;100.00;103019.66;6326417;28;20047;-73
2024/01/28 05:31:21;;;;;;;12.82;3.00;;;;;;;0.50;100.00;103018.88;6327033;28;20044;-73
2024/01/28 05:34:22;;;;;;;15.75;3.00;;;;;;;0.49;100.00;103016.22;6326371;28;20364;-72
2024/01/28 05:37:24;;;;;;;6.07;3.25;;;;;;;0.49;100.00;103014.50;6326181;28;20044;-73
2024/01/28 05:40:27;;;;;;;8.05;2.33;;;;;;;0.56;100.00;103012.09;6326422;28;20051;-72
2024/01/28 05:43:28;;;;;;;8.50;2.35;;;;;;;0.57;100.00;103013.81;6326273;28;20048;-73
2024/01/28 05:46:30;;;;;;;5.03;2.15;;;;;;;0.59;100.00;103012.13;6326402;28;20129;-72
2024/01/28 05:49:31;;;;;;;16.58;3.30;;;;;;;0.56;100.00;103000.03;6326303;28;20051;-73
2024/01/28 05:52:32;;;;;;;8.55;2.38;;;;;;;0.56;100.00;103007.78;6326484;28;20051;-72
2024/01/28 05:55:35;;;;;;;10.60;2.70;;;;;;;0.57;100.00;102988.81;6330041;28;20044;-72
2024/01/28 05:58:36;;;;;;;8.60;2.13;;;;;;;0.52;100.00;102992.16;6324813;28;20466;-72
2024/01/28 06:01:38;;;;;;;4.82;2.28;;;;;;;0.52;100.00;102985.25;6321325;28;20309;-73
2024/01/28 06:04:40;;;;;;;4.53;2.00;;;;;;;0.50;100.00;102979.19;6311834;28;20040;-74
2024/01/28 06:07:41;;;;;;;12.23;2.63;;;;;;;0.47;100.00;102976.53;6317042;28;20343;-73
2024/01/28 06:10:44;;;;;;;9.38;2.25;;;;;;;0.45;100.00;102981.63;6325968;28;20048;-73
2024/01/28 06:13:45;;;;;;;10.02;2.78;;;;;;;0.50;100.00;102984.38;6325739;28;20054;-73
2024/01/28 06:16:47;;;;;;;9.50;2.50;;;;;;;0.52;100.00;102976.63;6325332;28;20130;-71
2024/01/28 06:19:48;;;;;;;4.75;1.70;;;;;;;0.54;100.00;102972.34;6326129;28;20047;-71
2024/01/28 06:22:50;;;;;;;6.38;2.42;;;;;;;0.53;100.00;102970.59;6323370;28;20075;-71
2024/01/28 06:25:52;;;;;;;4.28;1.95;;;;;;;0.53;100.00;102966.31;6319378;28;20048;-71
2024/01/28 06:28:54;;;;;;;4.53;2.38;;;;;;;0.56;100.00;102958.63;6325263;28;20110;-72
2024/01/28 06:34:58;;;;;;;5.22;1.95;;;;;;;0.59;100.00;102944.88;6298312;28;20419;-73
2024/01/28 06:37:59;;;;;;;12.27;2.80;;;;;;;0.65;100.00;102951.09;6300030;28;20044;-73
2024/01/28 06:41:02;;;;;;;8.25;2.72;;;;;;;0.60;100.00;102952.69;6300271;28;20055;-72
2024/01/28 06:44:03;;;;;;;11.65;2.10;;;;;;;0.59;100.00;102965.56;6318409;28;20048;-75
2024/01/28 06:47:06;;;;;;;5.70;2.00;;;;;;;0.64;100.00;102961.41;6324588;28;20135;-73
2024/01/28 06:50:08;;;;;;;8.07;2.13;;;;;;;0.66;100.00;102962.31;6308573;28;20432;-75
2024/01/28 06:53:10;;;;;;;7.35;2.83;;;;;;;0.56;100.00;102961.22;6325152;28;20048;-73
2024/01/28 06:56:12;;;;;;;7.80;2.50;;;;;;;0.56;100.00;102970.69;6321575;28;20105;-75
2024/01/28 06:59:14;;;;;;;6.80;2.28;;;;;;;0.55;100.00;102961.19;6312356;28;20040;-75
2024/01/28 07:02:15;;;;;;;8.43;2.15;;;;;;;0.53;100.00;102970.59;6312133;28;20441;-72
2024/01/28 07:05:16;;;;;;;7.95;1.75;;;;;;;0.53;100.00;102971.47;6309171;28;20352;-75
2024/01/28 07:08:18;;;;;;;4.82;2.00;;;;;;;0.53;100.00;102968.03;6310468;28;20357;-72
2024/01/28 07:11:21;;;;;;;1.77;1.35;;;;;;;0.54;100.00;102957.69;6312875;28;20044;-75
2024/01/28 07:14:23;;;;;;;6.20;2.50;;;;;;;0.59;100.00;102950.03;6311168;28;20044;-75
2024/01/28 07:17:24;;;;;;;9.73;2.03;;;;;;;0.66;100.00;102949.38;6315075;28;20123;-75
2024/01/28 07:20:26;;;;;;;5.60;2.10;;;;;;;0.73;100.00;102954.72;6316967;28;20052;-73
2024/01/28 07:23:27;;;;;;;3.00;1.60;;;;;;;0.80;100.00;102952.25;6305826;28;20052;-75
2024/01/28 07:26:30;;;;;;;7.05;2.05;;;;;;;0.85;100.00;102942.88;6304333;28;20055;-75
2024/01/28 07:29:31;;;;;;;7.45;2.50;;;;;;;0.84;100.00;102948.91;6304817;28;20047;-75
2024/01/28 07:32:32;;;;;;;5.68;2.10;;;;;;;0.88;100.00;102945.56;6309771;28;20448;-73
2024/01/28 07:35:34;;;;;;;8.63;2.08;;;;;;;0.90;100.00;102939.56;6317306;28;20048;-75
2024/01/28 07:38:35;;;;;;;5.80;2.38;;;;;;;0.90;100.00;102936.97;6312549;28;20094;-75
2024/01/28 07:41:38;;;;;;;4.20;1.75;;;;;;;0.88;100.00;102928.31;6314945;28;20040;-75
2024/01/28 07:44:39;;;;;;;6.70;2.15;;;;;;;0.91;100.00;102932.66;6314409;28;20052;-74
2024/01/28 07:47:41;;;;;;;7.50;2.55;;;;;;;1.00;100.00;102935.47;6314488;28;20037;-75
2024/01/28 07:50:42;;;;;;;9.52;1.95;;;;;;;1.00;100.00;102936.34;6317828;28;20040;-75
2024/01/28 07:53:43;;;;;;;4.65;1.95;;;;;;;1.00;100.00;102931.16;6316595;28;20047;-73
2024/01/28 07:56:46;;;;;;;6.32;1.80;;;;;;;1.08;100.00;102920.94;6313712;28;20052;-75
2024/01/28 07:59:47;;;;;;;4.63;1.50;;;;;;;1.15;100.00;102916.78;6313068;28;20044;-75
2024/01/28 08:02:48;;;;;;;7.57;2.05;;;;;;;1.17;100.00;102921.13;6315915;28;20044;-74
2024/01/28 08:05:50;;;;;;;3.70;1.48;;;;;;;1.15;100.00;102924.56;6311803;28;20460;-75
2024/01/28 08:08:51;;;;;;;4.45;1.98;;;;;;;1.20;100.00;102925.53;6314063;28;20036;-75
2024/01/28 08:11:54;;;;;;;7.47;1.88;;;;;;;1.16;100.00;102922.00;6316332;28;20056;-75
2024/01/28 08:14:55;;;;;;;6.82;1.80;;;;;;;1.14;100.00;102915.91;6312125;28;20594;-75
2024/01/28 08:17:56;;;;;;;6.95;2.20;;;;;;;1.16;100.00;102915.94;6311625;28;20040;-75
2024/01/28 08:20:58;;;;;;;6.32;2.10;;;;;;;1.15;100.00;102917.66;6304287;28;20059;-75
2024/01/28 08:23:59;;;;;;;8.68;2.30;;;;;;;1.22;100.00;102910.88;6303067;28;20113;-74
2024/01/28 08:27:02;;;;;;;8.27;2.40;;;;;;;1.25;100.00;102914.41;6302737;28;20049;-73
2024/01/28 08:30:04;;;;;;;8.50;2.60;;;;;;;1.27;100.00;102917.00;6302485;28;20387;-73
2024/01/28 08:33:05;;;;;;;3.50;1.90;;;;;;;1.24;100.00;102910.06;6302742;28;20050;-73
2024/01/28 08:36:07;;;;;;;5.50;1.92;;;;;;;1.27;100.00;102904.06;6309394;28;20119;-73
2024/01/28 08:39:09;;;;;;;6.78;2.40;;;;;;;1.24;100.00;102910.06;6315368;28;20052;-73
2024/01/28 08:42:12;;;;;;;5.60;2.22;;;;;;;1.29;100.00;102910.16;6328227;28;20055;-73
2024/01/28 08:45:14;;;;;;;6.22;2.88;;;;;;;1.35;100.00;102907.69;6327952;28;20127;-73
2024/01/28 08:48:15;;;;;;;11.68;2.85;;;;;;;1.44;100.00;102905.28;6327307;28;20051;-73
2024/01/28 08:51:17;;;;;;;6.93;2.15;;;;;;;1.51;100.00;102903.69;6328004;28;20056;-75
2024/01/28 08:54:18;;;;;;;9.40;1.85;;;;;;;1.60;100.00;102890.91;6327443;28;20528;-73
2024/01/28 08:57:21;;;;;;;7.55;2.30;;;;;;;1.67;100.00;102887.56;6327357;28;20051;-73
2024/01/28 09:00:22;;;;;;;4.63;1.60;;;;;;;1.78;100.00;102898.13;6325519;28;20344;-73
2024/01/28 09:03:23;;;;;;;4.43;1.73;;;;;;;1.90;100.00;102889.69;6302079;28;20056;-73
2024/01/28 09:06:25;;;;;;;5.95;1.90;;;;;;;1.96;100.00;102890.69;6312381;28;20452;-73
2024/01/28 09:09:26;;;;;;;15.38;2.08;;;;;;;2.03;100.00;102900.28;6309949;28;20040;-73
2024/01/28 09:12:29;;;;;;;7.72;1.90;;;;;;;2.11;100.00;102895.22;6327315;28;20181;-74
2024/01/28 09:15:30;;;;;;;5.40;1.95;;;;;;;2.08;100.00;102889.13;6326927;28;20352;-73
2024/01/28 09:18:31;;;;;;;7.57;2.13;;;;;;;2.14;100.00;102892.69;6316046;28;20436;-74
2024/01/28 09:21:33;;;;;;;7.43;2.10;;;;;;;2.21;100.00;102897.13;6302993;28;20044;-74
2024/01/28 09:24:34;;;;;;;7.63;1.80;;;;;;;2.37;100.00;102899.97;6326696;28;20455;-74
2024/01/28 09:27:37;;;;;;;10.13;1.77;;;;;;;2.46;100.00;102903.56;6323550;28;20066;-74
2024/01/28 09:30:41;;;;;;;6.63;1.50;;;;;;;2.56;100.00;102901.13;6311413;28;20049;-74
2024/01/28 09:33:43;;;;;;;8.45;2.55;;;;;;;2.62;100.00;102898.59;6306929;28;20055;-74
2024/01/28 09:36:44;;;;;;;9.50;1.95;;;;;;;2.77;100.00;102906.59;6309565;28;20756;-74
2024/01/28 09:39:46;;;;;;;8.23;2.28;;;;;;;2.74;100.00;102914.34;6310518;28;20052;-74
2024/01/28 09:43:00;;;;;;;7.93;2.03;;;;;;;2.79;100.00;102926.53;6306883;28;20040;-74
2024/01/28 09:46:01;;;;;;;8.32;2.17;;;;;;;2.83;100.00;102929.19;6317023;28;20135;-74
2024/01/28 09:49:04;;;;;;;9.40;3.30;;;;;;;2.85;100.00;102922.28;6313557;28;20049;-74
2024/01/28 09:52:08;;;;;;;3.78;2.47;;;;;;;2.87;100.00;102913.69;6300834;28;20041;-74
2024/01/28 09:55:09;;;;;;;4.68;1.83;;;;;;;2.92;100.00;102912.00;6301444;28;20048;-74
2024/01/28 09:58:13;;;;;;;12.93;2.15;;;;;;;2.93;100.00;102912.88;6308908;28;20055;-74
2024/01/28 10:01:16;;;;;;;6.40;3.15;;;;;;;2.94;100.00;102915.47;6303509;28;20425;-74
2024/01/28 10:04:17;;;;;;;7.43;1.55;;;;;;;3.05;100.00;102915.63;6308972;28;20046;-74
2024/01/28 10:07:19;;;;;;;6.97;1.88;;;;;;;3.02;100.00;102915.59;6325542;28;20448;-75
2024/01/28 10:10:20;;;;;;;6.63;1.80;;;;;;;3.02;100.00;102911.25;6305158;28;20040;-74
2024/01/28 10:13:23;;;;;;;6.60;2.33;;;;;;;3.10;100.00;102915.69;6305697;28;20052;-75
2024/01/28 10:16:24;;;;;;;9.70;1.88;;;;;;;3.18;100.00;102908.84;6298671;28;20068;-74
2024/01/28 10:19:26;;;;;;;10.88;2.17;;;;;;;3.31;100.00;102903.81;6246176;28;20046;-74
2024/01/28 10:22:28;;;;;;;7.15;2.17;;;;;;;3.41;100.00;102891.81;6245631;28;20052;-74
2024/01/28 10:25:30;;;;;;;7.35;1.90;;;;;;;3.58;100.00;102888.50;6248669;28;20057;-74
2024/01/28 10:28:33;;;;;;;8.45;2.15;;;;;;;3.69;100.00;102890.38;6241700;28;20046;-73
2024/01/28 10:31:34;;;;;;;5.53;1.45;;;;;;;3.81;100.00;102876.59;6246253;28;20053;-74
2024/01/28 10:34:36;;;;;;;4.85;1.83;;;;;;;3.90;100.00;102868.88;6241625;28;20084;-73
2024/01/28 10:37:38;;;;;;;5.68;1.70;;;;;;;4.01;100.00;102864.66;6241403;28;20461;-74
2024/01/28 10:40:44;;;;;;;10.65;1.50;;;;;;;4.10;100.00;102855.16;6247757;28;20065;-74
2024/01/28 10:43:58;;;;;;;13.63;2.20;;;;;;;4.23;100.00;102844.00;6240699;28;20080;-74
2024/01/28 10:46:59;;;;;;;5.97;1.67;;;;;;;4.36;100.00;102848.41;6240741;28;20045;-74
2024/01/28 10:50:03;;;;;;;3.97;1.60;;;;;;;4.45;100.00;102844.97;6245569;28;20044;-74
2024/01/28 10:53:09;;;;;;;4.75;1.50;;;;;;;4.53;100.00;102843.28;6247234;28;20461;-75
2024/01/28 10:56:12;;;;;;;3.45;1.33;;;;;;;4.62;100.00;102843.34;6247929;28;20054;-74
2024/01/28 10:59:16;;;;;;;7.68;1.33;;;;;;;4.73;100.00;102846.88;6246757;28;20103;-74
2024/01/28 11:02:19;;;;;;;2.95;1.65;;;;;;;4.75;100.00;102839.94;6246970;28;20047;-74
2024/01/28 11:05:21;;;;;;;3.13;1.10;;;;;;;4.88;100.00;102837.38;6249374;28;20045;-74
2024/01/28 11:08:23;;;;;;;4.32;1.50;;;;;;;4.93;100.00;102839.13;6242642;28;20046;-74
2024/01/28 11:11:25;;;;;;;9.57;1.92;;;;;;;5.02;100.00;102826.16;6247302;28;20049;-73
2024/01/28 11:14:28;;;;;;;2.40;1.02;;;;;;;5.19;100.00;102807.09;6248946;28;20045;-74
2024/01/28 11:17:33;;;;;;;5.30;1.20;;;;;;;5.36;100.00;102813.22;6248893;28;20045;-74
2024/01/28 11:20:34;;;;;;;5.85;1.55;;;;;;;5.48;100.00;102815.81;6248139;28;20124;-75
2024/01/28 11:23:42;;;;;;;4.35;1.17;;;;;;;5.58;100.00;102811.47;6243102;28;20042;-76
2024/01/28 11:26:46;;;;;;;4.22;1.35;;;;;;;5.70;100.00;102816.69;6247412;28;20092;-76
2024/01/28 11:29:54;;;;;;;7.88;1.88;;;;;;;5.78;100.00;102808.88;6242291;28;20052;-75
2024/01/28 11:33:07;;;;;;;8.40;2.00;;;;;;;5.92;100.00;102801.06;6244486;28;20053;-75
2024/01/28 11:36:09;;;;;;;3.80;1.17;;;;;;;5.97;100.00;102789.75;6244587;28;20049;-76
2024/01/28 11:39:13;;;;;;;3.05;1.15;;;;;;;6.07;100.00;102795.84;6245644;28;20445;-76
2024/01/28 11:42:14;;;;;;;5.63;1.45;;;;;;;6.17;100.00;102792.31;6234200;28;20144;-75
2024/01/28 11:45:17;;;;;;;3.85;1.10;;;;;;;6.19;100.00;102793.22;6239313;28;20041;-74
2024/01/28 11:48:19;;;;;;;6.10;1.35;;;;;;;6.23;100.00;102788.84;6247234;28;20048;-76
2024/01/28 11:51:20;;;;;;;2.10;1.00;;;;;;;6.32;100.00;102796.66;6242379;28;20057;-76
2024/01/28 11:54:22;;;;;;;6.95;1.27;;;;;;;6.35;100.00;102794.88;6235230;28;20049;-75
2024/01/28 11:57:23;;;;;;;2.85;0.95;;;;;;;6.27;100.00;102793.19;6238950;28;20041;-74
2024/01/28 12:00:26;;;;;;;2.78;1.50;;;;;;;6.26;100.00;102791.44;6243638;28;20048;-74
2024/01/28 12:03:28;;;;;;;2.08;1.10;;;;;;;6.27;100.00;102783.63;6249255;28;20054;-76
2024/01/28 12:06:30;;;;;;;6.55;1.83;;;;;;;6.49;100.00;102780.91;6252820;28;20038;-75
2024/01/28 12:09:31;;;;;;;2.75;1.30;;;;;;;6.74;100.00;102773.88;6248471;28;20048;-76
2024/01/28 12:12:35;;;;;;;4.90;1.83;;;;;;;6.96;100.00;102775.50;6254007;28;20054;-74
2024/01/28 12:15:38;;;;;;;7.05;1.40;;;;;;;7.20;100.00;102760.53;6247540;28;20053;-74
2024/01/28 12:18:41;;;;;;;4.82;1.40;;;;;;;7.20;100.00;102771.84;6247910;28;20050;-74
2024/01/28 12:21:42;;;;;;;2.97;1.15;;;;;;;7.26;100.00;102763.09;6252893;28;20045;-74
2024/01/28 12:24:47;;;;;;;5.95;1.33;;;;;;;7.36;100.00;102762.16;6242101;28;20478;-75
2024/01/28 12:27:50;;;;;;;4.75;1.20;;;;;;;7.48;100.00;102759.44;6247835;28;20046;-74
2024/01/28 12:30:54;;;;;;;2.15;1.38;;;;;;;7.56;100.00;102746.28;6250390;28;20124;-74
2024/01/28 12:33:55;;;;;;;5.82;1.17;;;;;;;7.58;100.00;102744.50;6239412;28;20049;-73
2024/01/28 12:36:57;;;;;;;3.97;1.30;;;;;;;7.57;100.00;102737.56;6246569;28;20049;-74
2024/01/28 12:39:59;;;;;;;3.55;1.20;;;;;;;7.68;100.00;102742.72;6252982;28;20355;-74
2024/01/28 12:43:00;;;;;;;2.83;1.30;;;;;;;7.68;100.00;102733.09;6247596;28;20064;-74
2024/01/28 12:46:04;;;;;;;6.22;1.40;;;;;;;7.71;100.00;102735.69;6247618;28;20045;-74
2024/01/28 12:49:05;;;;;;;5.97;1.45;;;;;;;7.67;100.00;102725.25;6245959;28;20045;-73
2024/01/28 12:52:07;;;;;;;4.18;1.20;;;;;;;7.59;100.00;102725.34;6249305;28;20049;-73
2024/01/28 12:55:10;;;;;;;4.82;1.30;;;;;;;7.50;100.00;102717.56;6243176;28;20041;-73
2024/01/28 12:58:12;;;;;;;2.78;1.27;;;;;;;7.48;100.00;102708.84;6252123;28;20549;-74
2024/01/28 13:01:15;;;;;;;5.72;1.40;;;;;;;7.58;100.00;102713.13;6252666;28;20493;-73
2024/01/28 13:04:16;;;;;;;4.22;1.48;;;;;;;7.57;100.00;102704.41;6252073;28;20045;-73
2024/01/28 13:07:17;;;;;;;10.77;1.77;;;;;;;7.49;100.00;102697.50;6246482;28;20052;-73
2024/01/28 13:10:19;;;;;;;6.00;1.50;;;;;;;7.46;100.00;102681.84;6247652;28;20052;-73
2024/01/28 13:13:20;;;;;;;3.97;1.52;;;;;;;7.49;100.00;102689.66;6251918;28;20049;-73
2024/01/28 13:16:23;;;;;;;4.63;1.00;;;;;;;7.54;100.00;102680.91;6251591;28;20052;-75
2024/01/28 13:19:25;;;;;;;4.97;2.15;;;;;;;7.51;100.00;102674.84;6252342;28;20044;-74
2024/01/28 13:22:26;;;;;;;4.07;1.40;;;;;;;7.47;100.00;102666.13;6243732;28;20416;-75
2024/01/28 13:25:28;;;;;;;6.45;1.40;;;;;;;7.51;100.00;102666.97;6250554;28;20049;-73
2024/01/28 13:28:29;;;;;;;6.22;1.73;;;;;;;7.49;100.00;102666.97;6251517;28;20072;-75
2024/01/28 13:31:32;;;;;;;4.70;1.65;;;;;;;7.48;100.00;102670.47;6251104;28;20045;-74
2024/01/28 13:34:34;;;;;;;1.88;1.00;;;;;;;7.49;100.00;102666.13;6251589;28;20045;-72
2024/01/28 13:37:36;;;;;;;3.83;1.50;;;;;;;7.44;100.00;102657.44;6251401;28;20374;-73
2024/01/28 13:40:37;;;;;;;3.53;1.20;;;;;;;7.39;100.00;102652.25;6252144;28;20050;-73
2024/01/28 13:43:39;;;;;;;3.53;1.45;;;;;;;7.41;100.00;102652.25;6251593;28;20050;-72
2024/01/28 13:46:42;;;;;;;2.65;1.17;;;;;;;7.39;100.00;102641.78;6250912;28;20056;-74
2024/01/28 13:49:43;;;;;;;8.18;1.52;;;;;;;7.41;100.00;102642.66;6251447;28;20057;-74
2024/01/28 13:52:44;;;;;;;2.15;1.02;;;;;;;7.36;100.00;102642.72;6251307;28;20049;-73
2024/01/28 13:55:46;;;;;;;7.10;1.83;;;;;;;7.33;100.00;102640.13;6251007;28;20045;-75
2024/01/28 13:58:47;;;;;;;3.55;1.20;;;;;;;7.32;100.00;102642.75;6249272;28;20053;-72
2024/01/28 14:01:50;;;;;;;2.30;1.00;;;;;;;7.26;100.00;102627.97;6250792;28;20042;-74
2024/01/28 14:04:52;;;;;;;3.75;1.38;;;;;;;7.26;100.00;102622.72;6250592;28;20055;-77